Time;durP1;ratioP1;P1;durP2;ratioP2;P2;SDS_P1;SDS_P2;PMS_P1;PMS_P2;Temp;Humidity;BMP_temperature;BMP_pressure;BME280_temperature;BME280_humidity;BME280_pressure;Samples;Min_cycle;Max_cycle;Signal;HPM_P1;HPM_P2
2022/04/17 00:01:19;;;;;;;4.50;1.45;;;7.70;57.80;;;;;;5052229;28;20037;-68
2022/04/17 00:03:48;;;;;;;5.25;1.70;;;7.70;57.80;;;;;;5060156;28;20045;-66
2022/04/17 00:06:15;;;;;;;2.58;1.65;;;7.70;58.00;;;;;;5060641;28;20494;-67
2022/04/17 00:08:42;;;;;;;3.90;1.50;;;7.70;58.10;;;;;;5059530;28;20041;-68
2022/04/17 00:11:10;;;;;;;3.28;1.80;;;7.60;58.10;;;;;;5060111;28;20041;-67
2022/04/17 00:13:37;;;;;;;3.70;1.52;;;7.60;58.20;;;;;;5063156;28;20044;-68
2022/04/17 00:16:05;;;;;;;3.92;1.45;;;7.50;58.30;;;;;;5060106;28;20044;-68
2022/04/17 00:18:32;;;;;;;5.22;1.70;;;7.60;58.40;;;;;;5057342;28;20151;-67
2022/04/17 00:20:59;;;;;;;3.08;1.50;;;7.60;58.40;;;;;;5056538;28;20422;-67
2022/04/17 00:23:26;;;;;;;4.90;1.50;;;7.50;58.50;;;;;;5062019;28;20047;-68
2022/04/17 00:25:53;;;;;;;3.08;1.20;;;7.40;58.60;;;;;;5068690;28;20049;-67
2022/04/17 00:28:22;;;;;;;3.92;1.35;;;7.40;58.80;;;;;;5067190;28;20048;-69
2022/04/17 00:30:50;;;;;;;4.90;1.63;;;7.40;58.80;;;;;;5068310;28;20040;-68
2022/04/17 00:33:16;;;;;;;5.32;2.00;;;7.40;58.90;;;;;;5068883;28;20518;-68
2022/04/17 00:35:45;;;;;;;4.63;1.67;;;7.40;59.00;;;;;;5067146;28;20037;-68
2022/04/17 00:38:12;;;;;;;3.53;1.50;;;7.30;59.00;;;;;;5069012;28;20052;-68
2022/04/17 00:40:39;;;;;;;2.08;1.20;;;7.20;59.20;;;;;;5060996;28;20444;-68
2022/04/17 00:43:19;;;;;;;2.60;1.17;;;7.20;59.20;;;;;;5057369;28;20048;-67
2022/04/17 00:45:47;;;;;;;3.38;1.23;;;7.20;59.30;;;;;;5058839;28;20048;-68
2022/04/17 00:48:14;;;;;;;3.17;1.20;;;7.20;59.30;;;;;;5060461;28;20040;-68
2022/04/17 00:50:41;;;;;;;3.17;1.48;;;7.20;59.30;;;;;;5061125;28;20080;-67
2022/04/17 00:53:08;;;;;;;4.32;1.45;;;7.20;59.20;;;;;;5059158;28;20044;-67
2022/04/17 00:55:35;;;;;;;3.25;1.38;;;7.10;59.30;;;;;;5064391;28;20483;-68
2022/04/17 00:58:03;;;;;;;4.60;1.33;;;7.10;59.50;;;;;;5059616;28;20422;-67
2022/04/17 01:00:32;;;;;;;4.32;1.92;;;7.10;59.50;;;;;;5054909;28;20120;-67
2022/04/17 01:03:01;;;;;;;3.78;1.42;;;6.90;59.80;;;;;;5039080;28;20063;-68
2022/04/17 01:05:28;;;;;;;4.40;1.88;;;7.00;59.60;;;;;;5056137;28;20041;-68
2022/04/17 01:07:56;;;;;;;4.00;1.92;;;6.90;59.80;;;;;;5062726;28;20040;-69
2022/04/17 01:10:23;;;;;;;5.55;2.20;;;7.00;59.60;;;;;;5067889;28;20048;-68
2022/04/17 01:12:50;;;;;;;5.40;1.73;;;6.90;59.80;;;;;;5065630;28;20055;-68
2022/04/17 01:15:16;;;;;;;5.45;2.70;;;7.00;59.70;;;;;;5066972;28;20045;-69
2022/04/17 01:17:43;;;;;;;4.25;2.03;;;6.90;59.90;;;;;;5062829;28;20044;-67
2022/04/17 01:20:13;;;;;;;5.85;2.30;;;6.90;60.00;;;;;;5066905;28;20181;-68
2022/04/17 01:22:47;;;;;;;2.97;1.33;;;6.90;60.00;;;;;;5070766;28;20414;-67
2022/04/17 01:28:00;;;;;;;3.85;2.00;;;6.80;60.00;;;;;;5059482;28;20045;-69
2022/04/17 01:30:27;;;;;;;4.60;1.50;;;6.70;60.00;;;;;;5067112;28;20059;-69
2022/04/17 01:32:54;;;;;;;3.53;1.65;;;6.70;60.10;;;;;;5070160;28;20049;-68
2022/04/17 01:35:21;;;;;;;2.80;1.17;;;6.70;60.10;;;;;;5071056;28;20931;-68
2022/04/17 01:37:49;;;;;;;4.25;1.40;;;6.70;60.20;;;;;;5070203;28;20155;-68
2022/04/17 01:40:16;;;;;;;2.47;1.30;;;6.60;60.30;;;;;;5071107;28;20117;-68
2022/04/17 01:42:43;;;;;;;3.55;1.60;;;6.60;60.50;;;;;;5073028;28;20040;-68
2022/04/17 01:45:10;;;;;;;6.32;1.90;;;6.60;60.50;;;;;;5070094;28;20052;-68
2022/04/17 01:47:37;;;;;;;3.78;1.73;;;6.60;60.60;;;;;;5070570;28;20047;-67
2022/04/17 01:50:05;;;;;;;3.55;1.70;;;6.60;60.60;;;;;;5072672;28;20502;-67
2022/04/17 01:52:32;;;;;;;5.97;1.55;;;6.50;60.90;;;;;;5071576;28;20101;-68
2022/04/17 01:55:00;;;;;;;2.78;1.55;;;6.50;61.10;;;;;;5069316;28;20048;-67
2022/04/17 01:57:27;;;;;;;4.10;2.38;;;6.40;61.20;;;;;;5059127;28;20049;-68
2022/04/17 01:59:54;;;;;;;4.80;2.10;;;6.50;61.20;;;;;;5063822;28;20081;-65
2022/04/17 02:02:21;;;;;;;4.55;1.67;;;6.50;61.20;;;;;;5058453;28;20064;-68
2022/04/17 02:04:48;;;;;;;3.92;2.17;;;6.40;61.60;;;;;;5067551;28;20180;-67
2022/04/17 02:07:15;;;;;;;5.85;2.00;;;6.30;61.80;;;;;;5071494;28;20049;-68
2022/04/17 02:09:42;;;;;;;3.50;1.60;;;6.40;61.80;;;;;;5069113;28;20604;-68
2022/04/17 02:12:11;;;;;;;5.90;2.13;;;6.30;61.80;;;;;;5063836;28;20486;-69
2022/04/17 02:14:38;;;;;;;3.35;1.35;;;6.30;61.70;;;;;;5066948;28;20390;-68
2022/04/17 02:17:05;;;;;;;2.47;1.42;;;6.30;61.80;;;;;;5071778;28;20044;-68
2022/04/17 02:19:33;;;;;;;3.08;1.58;;;6.30;61.70;;;;;;5065095;28;20040;-68
2022/04/17 02:21:59;;;;;;;3.60;1.92;;;6.20;61.70;;;;;;5067889;28;20040;-68
2022/04/17 02:24:26;;;;;;;1.98;0.90;;;6.20;61.90;;;;;;5071734;28;20040;-67
2022/04/17 02:26:53;;;;;;;3.17;1.20;;;6.20;62.00;;;;;;5073095;28;20052;-67
2022/04/17 02:29:22;;;;;;;1.70;0.90;;;6.10;62.10;;;;;;5068497;28;20049;-67
2022/04/17 02:31:49;;;;;;;1.45;0.55;;;6.10;62.20;;;;;;5070747;28;20056;-67
2022/04/17 02:34:16;;;;;;;2.15;1.10;;;6.10;62.30;;;;;;5071559;28;20079;-68
2022/04/17 02:36:43;;;;;;;2.50;1.25;;;6.00;62.30;;;;;;5065918;28;20046;-68
2022/04/17 02:39:09;;;;;;;3.10;1.27;;;5.90;62.20;;;;;;5071788;28;20045;-68
2022/04/17 02:41:36;;;;;;;2.75;0.98;;;5.90;62.30;;;;;;5070960;28;20139;-67
2022/04/17 02:44:06;;;;;;;4.15;0.90;;;6.00;62.20;;;;;;5070046;28;20041;-68
2022/04/17 02:49:18;;;;;;;1.60;0.90;;;5.90;62.30;;;;;;5070559;28;20117;-68
2022/04/17 02:51:45;;;;;;;2.08;0.90;;;5.90;62.60;;;;;;5066499;28;20036;-68
2022/04/17 02:54:12;;;;;;;2.58;1.30;;;5.90;62.60;;;;;;5069711;28;20174;-67
2022/04/17 02:56:39;;;;;;;3.28;0.90;;;5.80;62.60;;;;;;5067937;28;20052;-69
2022/04/17 02:59:06;;;;;;;1.73;0.88;;;5.90;62.70;;;;;;5069561;28;20133;-69
2022/04/17 03:07:04;;;;;;;2.75;1.15;;;5.70;63.10;;;;;;5068574;28;20043;-67
2022/04/17 03:09:31;;;;;;;2.10;1.08;;;5.70;63.40;;;;;;5067997;28;20055;-67
2022/04/17 03:11:58;;;;;;;2.88;1.02;;;5.70;63.50;;;;;;5068300;28;20115;-68
2022/04/17 03:14:25;;;;;;;2.75;1.38;;;5.60;63.70;;;;;;5068869;28;20059;-68
2022/04/17 03:16:53;;;;;;;2.08;1.13;;;5.60;63.60;;;;;;5071167;28;20048;-69
2022/04/17 03:19:21;;;;;;;2.85;1.00;;;5.60;63.70;;;;;;5070764;28;20055;-67
2022/04/17 03:21:48;;;;;;;2.38;1.05;;;5.60;63.70;;;;;;5067016;28;20045;-67
2022/04/17 03:24:15;;;;;;;3.88;1.75;;;5.50;63.90;;;;;;5071267;28;20094;-69
2022/04/17 03:26:42;;;;;;;3.55;1.52;;;5.60;63.80;;;;;;5071545;28;20053;-68
2022/04/17 03:29:09;;;;;;;4.28;1.70;;;5.50;63.90;;;;;;5068090;28;20147;-67
2022/04/17 03:31:36;;;;;;;2.17;1.33;;;5.50;64.00;;;;;;5068440;28;20047;-67
2022/04/17 03:34:06;;;;;;;3.95;1.83;;;5.40;63.90;;;;;;5068891;28;20468;-67
2022/04/17 03:36:35;;;;;;;3.28;1.40;;;5.40;64.30;;;;;;5061830;28;20044;-66
2022/04/17 03:39:02;;;;;;;3.88;1.63;;;5.40;64.40;;;;;;5051213;28;20048;-68
2022/04/17 03:41:30;;;;;;;3.08;1.63;;;5.40;64.30;;;;;;5064512;28;20106;-68
2022/04/17 03:43:57;;;;;;;4.38;1.80;;;5.30;64.50;;;;;;5069477;28;20046;-67
2022/04/17 03:46:24;;;;;;;5.03;2.00;;;5.40;64.40;;;;;;5067623;28;20514;-68
2022/04/17 03:48:51;;;;;;;5.43;1.98;;;5.40;64.30;;;;;;5069603;28;20041;-67
2022/04/17 03:51:20;;;;;;;4.55;1.58;;;5.40;64.30;;;;;;5071538;28;20097;-68
2022/04/17 03:53:47;;;;;;;3.30;0.88;;;5.40;64.30;;;;;;5069353;28;20120;-68
2022/04/17 03:56:13;;;;;;;2.63;1.05;;;5.30;64.30;;;;;;5060625;28;20041;-69
2022/04/17 03:58:41;;;;;;;1.90;0.85;;;5.40;64.20;;;;;;5064339;28;20045;-68
2022/04/17 04:01:08;;;;;;;2.67;0.98;;;5.30;64.20;;;;;;5066922;28;20059;-68
2022/04/17 04:03:35;;;;;;;1.15;0.73;;;5.30;64.30;;;;;;5069925;28;20048;-67
2022/04/17 04:06:04;;;;;;;2.28;1.00;;;5.30;64.30;;;;;;5067428;28;20552;-68
2022/04/17 04:08:32;;;;;;;2.80;1.00;;;5.20;64.40;;;;;;5049775;28;20628;-68
2022/04/17 04:10:59;;;;;;;1.30;0.60;;;5.20;64.50;;;;;;5068952;28;20619;-69
2022/04/17 04:13:26;;;;;;;1.75;0.85;;;5.20;64.60;;;;;;5068605;28;20169;-68
2022/04/17 04:15:55;;;;;;;1.65;1.00;;;5.10;64.80;;;;;;5067871;28;20040;-68
2022/04/17 04:18:22;;;;;;;2.33;1.00;;;5.10;64.80;;;;;;5066906;28;20128;-70
2022/04/17 04:20:49;;;;;;;2.15;1.00;;;5.20;64.90;;;;;;5067248;28;20045;-69
2022/04/17 04:23:16;;;;;;;2.33;1.20;;;5.10;65.00;;;;;;5065556;28;20043;-68
2022/04/17 04:25:44;;;;;;;2.95;1.30;;;5.10;64.90;;;;;;5067195;28;20044;-69
2022/04/17 04:31:02;;;;;;;3.15;1.17;;;5.00;65.40;;;;;;5050998;28;20052;-68
2022/04/17 04:33:31;;;;;;;3.22;1.50;;;5.00;65.40;;;;;;5069107;28;20044;-68
2022/04/17 04:35:59;;;;;;;4.13;1.50;;;5.00;65.40;;;;;;5067944;28;20064;-70
2022/04/17 04:38:26;;;;;;;4.25;1.80;;;5.00;65.40;;;;;;5066082;28;20032;-68
2022/04/17 04:40:55;;;;;;;3.60;1.90;;;5.00;65.40;;;;;;5067979;28;20579;-68
2022/04/17 04:43:22;;;;;;;5.43;1.65;;;5.00;65.30;;;;;;5067162;28;20131;-67
2022/04/17 04:46:07;;;;;;;4.13;1.80;;;5.00;65.10;;;;;;5066630;28;20064;-69
2022/04/17 04:51:26;;;;;;;4.60;1.85;;;5.00;65.40;;;;;;5047357;28;20071;-68
2022/04/17 04:53:54;;;;;;;3.97;1.83;;;5.00;65.30;;;;;;5056106;28;20075;-68
2022/04/17 04:56:23;;;;;;;5.00;1.95;;;5.00;65.40;;;;;;5065604;28;20048;-68
2022/04/17 04:58:51;;;;;;;3.63;1.45;;;5.00;65.40;;;;;;5056939;28;20047;-68
2022/04/17 05:01:18;;;;;;;4.07;1.52;;;5.00;65.40;;;;;;5061855;28;20035;-68
2022/04/17 05:03:46;;;;;;;3.45;1.80;;;5.00;65.40;;;;;;5066174;28;20118;-68
2022/04/17 05:06:13;;;;;;;5.03;1.73;;;5.00;65.40;;;;;;5062579;28;20041;-68
2022/04/17 05:08:40;;;;;;;4.25;2.03;;;5.00;65.50;;;;;;5063121;28;20486;-68
2022/04/17 05:11:07;;;;;;;5.18;2.45;;;5.00;65.50;;;;;;5062691;28;20112;-69
2022/04/17 05:13:35;;;;;;;4.88;1.88;;;5.00;65.60;;;;;;5062902;28;20055;-68
2022/04/17 05:16:03;;;;;;;4.32;2.03;;;4.90;65.70;;;;;;5057203;28;20043;-67
2022/04/17 05:18:30;;;;;;;3.80;1.90;;;4.90;65.80;;;;;;5058377;28;20549;-68
2022/04/17 05:20:57;;;;;;;3.28;1.65;;;5.00;66.00;;;;;;5059698;28;20043;-68
2022/04/17 05:23:29;;;;;;;3.42;1.67;;;4.90;66.00;;;;;;5059478;28;20049;-68
2022/04/17 05:25:57;;;;;;;3.60;1.70;;;4.90;66.00;;;;;;5058537;28;20039;-67
2022/04/17 05:28:25;;;;;;;3.47;1.38;;;4.90;66.20;;;;;;5060233;28;20639;-68
2022/04/17 05:30:53;;;;;;;4.63;1.80;;;4.90;66.20;;;;;;5063611;28;20036;-68
2022/04/17 05:33:21;;;;;;;6.28;1.60;;;4.90;66.20;;;;;;5059010;28;20128;-69
2022/04/17 05:35:49;;;;;;;2.92;1.35;;;5.00;66.20;;;;;;5059942;28;20044;-67
2022/04/17 05:38:16;;;;;;;4.65;2.40;;;5.00;66.10;;;;;;5060528;28;20048;-69
2022/04/17 05:40:46;;;;;;;6.55;1.85;;;5.00;66.30;;;;;;5067805;28;20052;-68
2022/04/17 05:43:13;;;;;;;2.75;1.38;;;5.00;66.40;;;;;;5061552;28;20032;-67
2022/04/17 05:45:41;;;;;;;4.57;1.80;;;5.10;66.30;;;;;;5058497;28;20044;-68
2022/04/17 05:48:10;;;;;;;5.03;1.80;;;5.10;66.10;;;;;;5057058;28;20063;-68
2022/04/17 05:50:38;;;;;;;2.80;1.35;;;5.20;66.10;;;;;;5055034;28;20044;-69
2022/04/17 05:53:06;;;;;;;5.35;1.75;;;5.20;65.90;;;;;;5060542;28;20067;-67
2022/04/17 05:55:35;;;;;;;3.55;2.03;;;5.20;66.00;;;;;;5058394;28;20033;-68
2022/04/17 05:58:02;;;;;;;4.43;1.83;;;5.20;66.00;;;;;;5056449;28;20072;-67
2022/04/17 06:00:29;;;;;;;4.03;1.73;;;5.20;66.00;;;;;;5060153;28;20449;-68
2022/04/17 06:02:56;;;;;;;3.75;1.52;;;5.20;65.80;;;;;;5061626;28;20139;-68
2022/04/17 06:05:24;;;;;;;6.80;2.38;;;5.30;65.80;;;;;;5064616;28;20044;-69
2022/04/17 06:07:51;;;;;;;3.28;1.65;;;5.30;65.80;;;;;;5064130;28;20139;-67
2022/04/17 06:10:18;;;;;;;5.20;1.45;;;5.40;65.80;;;;;;5062269;28;20047;-69
2022/04/17 06:12:47;;;;;;;2.83;1.67;;;5.40;65.90;;;;;;5065173;28;20075;-68
2022/04/17 06:15:13;;;;;;;5.18;2.00;;;5.50;65.70;;;;;;5058000;28;20042;-69
2022/04/17 06:17:42;;;;;;;3.13;1.60;;;5.50;65.80;;;;;;5060986;28;20041;-68
2022/04/17 06:20:11;;;;;;;4.43;1.52;;;5.70;65.40;;;;;;5062678;28;20037;-67
2022/04/17 06:22:40;;;;;;;5.20;1.85;;;5.70;65.50;;;;;;5059608;28;20050;-68
2022/04/17 06:25:09;;;;;;;5.05;1.88;;;5.80;65.20;;;;;;5060553;28;20149;-69
2022/04/17 06:27:40;;;;;;;3.88;1.58;;;5.90;64.80;;;;;;5059037;28;20131;-69
2022/04/17 06:30:10;;;;;;;2.70;1.45;;;6.00;64.70;;;;;;5063541;28;20160;-67
2022/04/17 06:32:37;;;;;;;4.00;1.70;;;6.20;64.70;;;;;;5060644;28;20049;-68
2022/04/17 06:35:05;;;;;;;3.53;1.50;;;6.20;64.60;;;;;;5063974;28;20115;-68
2022/04/17 06:37:32;;;;;;;2.75;1.30;;;6.30;64.40;;;;;;5064978;28;20052;-68
2022/04/17 06:40:01;;;;;;;3.40;1.80;;;6.40;64.50;;;;;;5065454;28;20094;-68
2022/04/17 06:42:27;;;;;;;4.25;1.63;;;6.60;64.40;;;;;;5067615;28;20130;-67
2022/04/17 06:44:54;;;;;;;3.00;1.40;;;6.70;64.10;;;;;;5065175;28;20037;-68
2022/04/17 06:47:21;;;;;;;5.65;1.75;;;6.80;64.10;;;;;;5061038;28;20044;-68
2022/04/17 06:49:48;;;;;;;8.18;2.78;;;6.90;63.70;;;;;;5059564;28;20115;-69
2022/04/17 06:52:15;;;;;;;4.15;1.38;;;7.10;63.30;;;;;;5060648;28;20060;-68
2022/04/17 06:54:42;;;;;;;2.88;1.23;;;7.20;63.30;;;;;;5060838;28;20040;-67
2022/04/17 06:57:10;;;;;;;4.20;1.58;;;7.40;62.90;;;;;;5059585;28;20037;-68
2022/04/17 06:59:39;;;;;;;3.13;1.60;;;7.60;62.40;;;;;;5059534;28;20487;-68
2022/04/17 07:02:07;;;;;;;4.13;1.17;;;7.70;61.80;;;;;;5060284;28;20040;-68
2022/04/17 07:04:34;;;;;;;3.80;1.58;;;7.90;61.60;;;;;;5066022;28;20044;-68
2022/04/17 07:07:01;;;;;;;3.40;1.42;;;8.10;61.70;;;;;;5062022;28;20064;-68
2022/04/17 07:09:29;;;;;;;2.78;1.90;;;8.30;60.90;;;;;;5065965;28;20218;-68
2022/04/17 07:11:55;;;;;;;6.68;1.70;;;8.40;60.70;;;;;;5066590;28;20508;-68
2022/04/17 07:14:24;;;;;;;4.65;1.95;;;8.60;60.30;;;;;;5064057;28;20044;-68
2022/04/17 07:16:51;;;;;;;4.82;1.70;;;8.70;59.80;;;;;;5061065;28;20528;-69
2022/04/17 07:19:18;;;;;;;5.05;1.60;;;8.90;60.10;;;;;;5058867;28;20135;-67
2022/04/17 07:21:45;;;;;;;3.60;1.50;;;9.00;59.70;;;;;;5061858;28;20082;-68
2022/04/17 07:24:11;;;;;;;2.92;1.55;;;9.10;59.40;;;;;;5054655;28;20044;-68
2022/04/17 07:26:38;;;;;;;2.28;1.20;;;9.30;58.60;;;;;;5060042;28;20508;-67
2022/04/17 07:29:05;;;;;;;4.47;1.48;;;9.40;58.40;;;;;;5057787;28;20064;-68
2022/04/17 07:31:34;;;;;;;2.50;1.17;;;9.60;58.20;;;;;;5050632;28;20051;-69
2022/04/17 07:34:01;;;;;;;2.50;1.30;;;9.70;57.80;;;;;;5061966;28;20053;-67
2022/04/17 07:36:28;;;;;;;2.13;1.17;;;9.80;57.40;;;;;;5061395;28;20046;-68
2022/04/17 07:38:55;;;;;;;2.30;1.13;;;10.00;57.30;;;;;;5061263;28;20060;-68
2022/04/17 07:41:22;;;;;;;3.75;1.58;;;10.10;57.10;;;;;;5043118;28;20049;-69
2022/04/17 07:43:49;;;;;;;4.32;1.38;;;10.30;56.80;;;;;;5040763;28;20059;-68
2022/04/17 07:46:16;;;;;;;4.38;1.30;;;10.40;56.40;;;;;;5041667;28;20045;-67
2022/04/17 07:48:44;;;;;;;3.78;1.50;;;10.60;55.80;;;;;;5038596;28;20695;-69
2022/04/17 07:51:11;;;;;;;4.75;1.30;;;10.70;55.30;;;;;;5037027;28;20041;-68
2022/04/17 07:53:38;;;;;;;1.90;0.90;;;10.90;55.10;;;;;;5037119;28;20052;-68
2022/04/17 07:56:05;;;;;;;2.55;1.25;;;11.00;54.00;;;;;;5041196;28;20049;-67
2022/04/17 07:58:35;;;;;;;2.75;1.10;;;11.10;54.60;;;;;;5038930;28;20156;-69
2022/04/17 08:01:10;;;;;;;4.38;1.27;;;11.20;54.20;;;;;;5036929;28;20217;-66
2022/04/17 08:03:47;;;;;;;2.72;0.85;;;11.40;54.50;;;;;;5045574;28;20094;-67
2022/04/17 08:06:20;;;;;;;1.55;0.90;;;11.50;52.80;;;;;;5043807;28;20671;-67
2022/04/17 08:08:50;;;;;;;4.68;1.17;;;11.70;52.90;;;;;;5040379;28;20045;-69
2022/04/17 08:11:18;;;;;;;4.13;1.10;;;11.70;52.30;;;;;;5040829;28;20048;-68
2022/04/17 08:13:46;;;;;;;1.48;0.90;;;11.90;52.50;;;;;;5041298;28;23611;-68
2022/04/17 08:16:14;;;;;;;1.85;0.82;;;12.00;51.50;;;;;;5042035;28;20574;-68
2022/04/17 08:18:41;;;;;;;4.97;0.88;;;12.10;51.20;;;;;;5040310;28;20044;-68
2022/04/17 08:21:08;;;;;;;2.08;0.73;;;12.20;51.70;;;;;;5040142;28;20056;-69
2022/04/17 08:23:37;;;;;;;2.15;0.90;;;12.30;51.70;;;;;;5037103;28;20048;-67
2022/04/17 08:26:06;;;;;;;1.93;0.90;;;12.40;51.30;;;;;;5039684;28;20048;-67
2022/04/17 08:28:33;;;;;;;2.33;0.80;;;12.60;51.60;;;;;;5037987;28;20476;-67
2022/04/17 08:31:00;;;;;;;2.65;0.85;;;12.80;50.90;;;;;;5041835;28;20043;-67
2022/04/17 08:33:28;;;;;;;4.47;1.02;;;12.90;50.50;;;;;;5040767;28;20461;-67
2022/04/17 08:35:55;;;;;;;1.63;0.73;;;13.00;47.80;;;;;;5045825;28;20056;-67
2022/04/17 08:38:22;;;;;;;1.63;0.50;;;13.00;47.90;;;;;;5043256;28;20048;-67
2022/04/17 08:40:51;;;;;;;0.90;0.50;;;13.00;47.30;;;;;;5055063;28;20048;-67
2022/04/17 08:43:22;;;;;;;1.13;0.60;;;13.20;48.00;;;;;;5063660;28;20428;-67
2022/04/17 08:45:50;;;;;;;2.58;0.50;;;13.40;49.20;;;;;;5061480;28;20041;-68
2022/04/17 08:48:18;;;;;;;3.17;0.93;;;13.60;48.60;;;;;;5058712;28;20041;-66
2022/04/17 08:50:48;;;;;;;3.00;0.75;;;13.70;48.10;;;;;;5057955;28;20051;-68
2022/04/17 08:53:17;;;;;;;2.05;0.70;;;13.70;47.30;;;;;;5058532;28;20127;-66
2022/04/17 08:55:45;;;;;;;1.17;0.55;;;13.70;47.90;;;;;;5059194;28;20506;-70
2022/04/17 08:58:13;;;;;;;1.75;0.70;;;13.80;45.70;;;;;;5054702;28;20098;-66
2022/04/17 09:00:40;;;;;;;1.98;1.02;;;13.80;45.50;;;;;;5058197;28;20055;-68
2022/04/17 09:03:10;;;;;;;1.80;0.60;;;13.80;46.10;;;;;;5059943;28;20079;-67
2022/04/17 09:05:38;;;;;;;1.90;0.65;;;13.80;45.70;;;;;;5061636;28;20090;-67
2022/04/17 09:08:16;;;;;;;1.33;0.50;;;13.90;46.40;;;;;;5060708;28;20072;-67
2022/04/17 09:10:54;;;;;;;3.13;0.80;;;14.00;46.60;;;;;;5061818;28;20084;-68
2022/04/17 09:13:33;;;;;;;1.35;0.60;;;14.10;46.60;;;;;;5056197;28;20044;-69
2022/04/17 09:16:02;;;;;;;1.83;0.60;;;14.30;46.80;;;;;;5062337;28;20051;-67
2022/04/17 09:18:31;;;;;;;3.33;0.60;;;14.30;45.00;;;;;;5064090;28;20040;-67
2022/04/17 09:20:58;;;;;;;2.10;0.73;;;14.40;46.30;;;;;;5060127;28;20115;-68
2022/04/17 09:23:40;;;;;;;1.20;0.50;;;14.50;46.20;;;;;;5056457;28;20040;-67
2022/04/17 09:26:08;;;;;;;1.40;0.60;;;14.60;46.00;;;;;;5059009;28;20674;-66
2022/04/17 09:28:38;;;;;;;3.67;0.70;;;14.60;45.10;;;;;;5057400;28;20048;-67
2022/04/17 09:31:11;;;;;;;;;;;14.60;42.90;;;;;;5062868;28;20051;-67
2022/04/17 09:33:40;;;;;;;1.92;0.75;;;14.60;43.30;;;;;;5060262;28;20266;-68
2022/04/17 09:36:08;;;;;;;2.00;0.60;;;14.50;43.50;;;;;;5058733;28;20049;-67
2022/04/17 09:38:35;;;;;;;1.88;0.60;;;14.60;42.90;;;;;;5059358;28;20048;-67
2022/04/17 09:41:07;;;;;;;1.55;0.80;;;14.70;43.90;;;;;;5069496;28;20043;-68
2022/04/17 09:43:36;;;;;;;2.25;0.60;;;14.70;44.00;;;;;;5070220;28;20048;-68
2022/04/17 09:46:04;;;;;;;1.88;0.60;;;14.80;44.20;;;;;;5064402;28;20048;-68
2022/04/17 09:48:34;;;;;;;2.20;0.70;;;15.00;44.60;;;;;;5062652;28;20055;-68
2022/04/17 09:51:01;;;;;;;2.00;0.63;;;14.90;43.60;;;;;;5061907;28;20063;-68
2022/04/17 09:53:33;;;;;;;3.60;1.75;;;14.90;42.00;;;;;;5063089;28;20109;-67
2022/04/17 09:56:11;;;;;;;3.15;1.13;;;14.90;41.30;;;;;;5061638;28;20045;-68
2022/04/17 09:58:45;;;;;;;2.67;1.00;;;15.00;42.30;;;;;;5061786;28;20055;-66
2022/04/17 10:01:16;;;;;;;1.42;0.70;;;15.00;41.90;;;;;;5060179;28;20134;-68
2022/04/17 10:03:43;;;;;;;2.58;0.47;;;15.10;42.30;;;;;;5061684;28;20560;-68
2022/04/17 10:06:12;;;;;;;3.03;0.70;;;15.10;42.20;;;;;;5064931;28;20040;-68
2022/04/17 10:08:43;;;;;;;2.65;0.80;;;15.30;41.50;;;;;;5047976;28;20107;-68
2022/04/17 10:11:10;;;;;;;2.72;0.77;;;15.30;42.60;;;;;;5065681;28;20086;-68
2022/04/17 10:13:38;;;;;;;1.50;0.73;;;15.30;41.50;;;;;;5065600;28;20127;-68
2022/04/17 10:16:09;;;;;;;1.58;0.63;;;15.30;41.00;;;;;;5067946;28;20052;-68
2022/04/17 10:18:39;;;;;;;1.35;0.57;;;15.30;41.60;;;;;;5062779;28;20047;-68
2022/04/17 10:21:08;;;;;;;1.10;0.40;;;15.30;40.50;;;;;;5062010;28;20036;-66
2022/04/17 10:23:42;;;;;;;1.10;0.50;;;15.30;41.90;;;;;;5064929;28;20048;-67
2022/04/17 10:26:12;;;;;;;1.73;0.60;;;15.50;40.40;;;;;;5061900;28;20044;-68
2022/04/17 10:28:44;;;;;;;0.93;0.43;;;15.60;41.60;;;;;;5063398;28;20044;-67
2022/04/17 10:31:19;;;;;;;1.88;0.82;;;15.80;40.60;;;;;;5066238;28;20135;-68
2022/04/17 10:34:07;;;;;;;2.83;0.50;;;15.90;40.50;;;;;;5062400;28;20115;-67
2022/04/17 10:36:51;;;;;;;2.25;0.43;;;15.80;39.20;;;;;;5053875;28;20630;-67
2022/04/17 10:39:24;;;;;;;1.25;0.40;;;15.70;39.80;;;;;;5061352;28;20041;-68
2022/04/17 10:41:51;;;;;;;1.00;0.52;;;15.90;40.40;;;;;;5062640;28;20078;-68
2022/04/17 10:44:18;;;;;;;1.02;0.47;;;15.90;39.90;;;;;;5063663;28;20048;-66
2022/04/17 10:46:49;;;;;;;1.42;0.40;;;15.90;38.50;;;;;;5063210;28;20278;-67
2022/04/17 10:49:20;;;;;;;1.65;0.50;;;15.90;39.30;;;;;;5061963;28;20178;-67
2022/04/17 10:51:52;;;;;;;2.08;0.57;;;15.90;38.40;;;;;;5059708;28;20040;-68
2022/04/17 10:54:19;;;;;;;1.20;0.40;;;16.00;39.20;;;;;;5061519;28;20152;-68
2022/04/17 10:57:00;;;;;;;1.23;0.60;;;16.10;39.40;;;;;;5062006;28;20109;-68
2022/04/17 10:59:32;;;;;;;0.98;0.50;;;16.10;39.30;;;;;;5063311;28;20064;-67
2022/04/17 11:02:24;;;;;;;2.65;0.50;;;16.20;39.10;;;;;;5058263;28;20044;-67
2022/04/17 11:04:53;;;;;;;1.88;0.43;;;16.20;37.80;;;;;;5062292;28;20497;-68
2022/04/17 11:07:27;;;;;;;2.85;0.43;;;16.20;38.30;;;;;;5060472;28;20049;-67
2022/04/17 11:10:26;;;;;;;1.45;0.50;;;16.20;36.20;;;;;;5061279;28;20046;-67
2022/04/17 11:12:55;;;;;;;1.05;0.40;;;16.20;37.80;;;;;;5058420;28;20060;-67
2022/04/17 11:15:30;;;;;;;0.60;0.40;;;16.30;37.90;;;;;;5060313;28;20136;-67
2022/04/17 11:18:05;;;;;;;0.90;0.30;;;16.30;37.60;;;;;;5060300;28;20040;-66
2022/04/17 11:20:34;;;;;;;0.85;0.40;;;16.30;36.20;;;;;;5059385;28;20111;-68
2022/04/17 11:23:01;;;;;;;0.95;0.38;;;16.40;37.70;;;;;;5064826;28;20310;-68
2022/04/17 11:25:30;;;;;;;3.70;0.40;;;16.50;37.40;;;;;;5061399;28;20041;-66
2022/04/17 11:28:02;;;;;;;2.25;0.68;;;16.50;36.50;;;;;;5056301;28;20075;-67
2022/04/17 11:30:36;;;;;;;1.02;0.43;;;16.40;36.40;;;;;;5062877;28;20040;-67
2022/04/17 11:33:08;;;;;;;2.33;0.45;;;16.50;37.20;;;;;;5067440;28;20141;-67
2022/04/17 11:35:36;;;;;;;1.60;0.35;;;16.50;37.30;;;;;;5063318;28;20231;-67
2022/04/17 11:38:06;;;;;;;1.05;0.45;;;16.50;37.20;;;;;;5064534;28;20052;-67
2022/04/17 11:40:36;;;;;;;0.70;0.45;;;16.60;37.20;;;;;;5029035;28;20132;-67
2022/04/17 11:43:09;;;;;;;1.08;0.35;;;16.50;37.30;;;;;;5040453;28;20037;-68
2022/04/17 11:45:37;;;;;;;0.90;0.40;;;16.60;37.30;;;;;;5036847;28;20049;-68
2022/04/17 11:48:08;;;;;;;0.73;0.38;;;16.70;36.60;;;;;;5040336;28;20477;-67
2022/04/17 11:50:36;;;;;;;3.42;0.60;;;16.60;35.90;;;;;;5040083;28;20052;-67
2022/04/17 11:53:07;;;;;;;0.98;0.40;;;16.60;35.60;;;;;;5041827;28;20041;-70
2022/04/17 11:55:36;;;;;;;1.17;0.40;;;16.60;35.20;;;;;;5041900;28;20097;-68
2022/04/17 11:58:04;;;;;;;1.10;0.60;;;16.60;35.10;;;;;;5044428;28;20048;-69
2022/04/17 12:00:32;;;;;;;0.85;0.35;;;16.60;34.50;;;;;;5039025;28;20057;-70
2022/04/17 12:03:01;;;;;;;1.13;0.60;;;16.60;34.20;;;;;;5048373;28;20048;-68
2022/04/17 12:05:31;;;;;;;1.00;0.30;;;16.60;33.50;;;;;;5050513;28;20144;-68
2022/04/17 12:08:01;;;;;;;;;;;16.60;34.20;;;;;;5050114;28;20060;-68
2022/04/17 12:10:28;;;;;;;0.63;0.30;;;16.60;34.10;;;;;;5050559;28;19928;-68
2022/04/17 12:12:55;;;;;;;2.65;0.40;;;16.70;35.50;;;;;;5049905;28;20137;-66
2022/04/17 12:15:22;;;;;;;1.67;0.40;;;16.70;35.40;;;;;;5037022;28;20049;-66
2022/04/17 12:17:59;;;;;;;2.80;0.57;;;16.70;36.10;;;;;;5050647;28;20408;-69
2022/04/17 12:20:26;;;;;;;0.75;0.30;;;16.70;35.00;;;;;;5049596;28;20405;-68
2022/04/17 12:22:55;;;;;;;1.27;0.47;;;16.70;34.70;;;;;;5050118;28;20041;-69
2022/04/17 12:25:24;;;;;;;1.75;0.47;;;16.70;34.50;;;;;;5047145;28;20118;-67
2022/04/17 12:27:53;;;;;;;0.63;0.45;;;16.60;33.80;;;;;;5047972;28;20410;-69
2022/04/17 12:30:21;;;;;;;1.85;0.47;;;16.60;34.30;;;;;;5049679;28;20111;-68
2022/04/17 12:32:49;;;;;;;0.45;0.40;;;16.60;34.20;;;;;;5049853;28;20198;-68
2022/04/17 12:35:24;;;;;;;1.13;0.38;;;16.60;35.60;;;;;;5044845;28;20160;-68
2022/04/17 12:38:02;;;;;;;2.13;0.52;;;16.60;33.50;;;;;;5044552;28;20049;-68
2022/04/17 12:40:31;;;;;;;1.35;0.40;;;16.60;34.70;;;;;;5050254;28;20071;-69
2022/04/17 12:43:19;;;;;;;1.35;0.60;;;16.60;34.40;;;;;;5061482;28;20374;-68
2022/04/17 12:45:55;;;;;;;1.10;0.43;;;16.60;35.80;;;;;;5055082;28;20048;-68
2022/04/17 12:48:31;;;;;;;0.57;0.30;;;16.70;36.80;;;;;;5061345;28;20060;-68
2022/04/17 12:50:59;;;;;;;1.55;0.55;;;16.70;35.70;;;;;;5057347;28;20124;-68
2022/04/17 12:53:27;;;;;;;0.73;0.50;;;16.70;34.70;;;;;;5059268;28;20055;-68
2022/04/17 12:55:57;;;;;;;1.60;0.40;;;16.70;33.40;;;;;;5061012;28;20052;-68
2022/04/17 12:58:24;;;;;;;2.60;0.40;;;16.60;33.70;;;;;;5066970;28;20130;-68
2022/04/17 13:00:58;;;;;;;1.00;0.32;;;16.50;32.00;;;;;;5061863;28;20075;-68
2022/04/17 13:03:35;;;;;;;0.80;0.38;;;16.50;32.50;;;;;;5066641;28;20047;-67
2022/04/17 13:06:04;;;;;;;1.05;0.50;;;16.50;33.00;;;;;;5067221;28;20059;-68
2022/04/17 13:08:31;;;;;;;1.77;0.50;;;16.50;33.00;;;;;;5066176;28;20171;-68
2022/04/17 13:10:59;;;;;;;0.68;0.40;;;16.40;32.50;;;;;;5065980;28;20044;-67
2022/04/17 13:13:39;;;;;;;1.42;0.50;;;16.40;33.60;;;;;;5066397;28;20048;-68
2022/04/17 13:16:06;;;;;;;;;;;16.40;32.80;;;;;;5069265;28;20444;-68
2022/04/17 13:18:35;;;;;;;2.33;0.68;;;16.40;32.60;;;;;;5067510;28;19920;-67